createdAt,value
2022-09-24T00:03:17.594Z,99862.09
2022-09-24T00:08:20.258Z,99863.69
2022-09-24T00:13:21.895Z,99867.66
2022-09-24T00:18:23.538Z,99864.97
2022-09-24T00:23:25.753Z,99868.25
2022-09-24T00:28:27.649Z,99863.19
2022-09-24T00:33:29.301Z,99852.25
2022-09-24T00:38:34.153Z,99844.56
2022-09-24T00:43:39.039Z,99846.69
2022-09-24T00:48:42.823Z,99850.09
2022-09-24T00:53:48.653Z,99841.78
2022-09-24T00:58:54.962Z,99848.53
2022-09-24T01:03:58.192Z,99841.03
2022-09-24T01:09:00.728Z,99838.66
2022-09-24T01:14:40.941Z,99844.50
2022-09-24T01:19:45.570Z,99832.69
2022-09-24T01:24:47.111Z,99825.00
2022-09-24T01:30:05.997Z,99821.53
2022-09-24T01:35:21.745Z,99811.38
2022-09-24T01:40:27.070Z,99818.94
2022-09-24T01:45:31.799Z,99819.78
2022-09-24T01:50:40.528Z,99815.56
2022-09-24T01:55:49.741Z,99811.28
2022-09-24T02:00:57.559Z,99803.72
2022-09-24T02:06:08.728Z,99798.59
2022-09-24T02:11:17.413Z,99797.72
2022-09-24T02:16:24.853Z,99798.56
2022-09-24T02:21:28.808Z,99791.81
2022-09-24T02:26:30.429Z,99793.50
2022-09-24T02:31:37.883Z,99790.03
2022-09-24T02:36:40.932Z,99786.00
2022-09-24T02:41:42.709Z,99785.16
2022-09-24T02:46:46.072Z,99789.38
2022-09-24T02:51:47.757Z,99791.81
2022-09-24T02:56:49.473Z,99786.66
2022-09-24T03:01:51.185Z,99790.81
2022-09-24T03:06:53.384Z,99788.31
2022-09-24T03:11:55.553Z,99792.53
2022-09-24T03:16:57.133Z,99789.22
2022-09-24T03:21:58.814Z,99776.63
2022-09-24T03:27:00.450Z,99770.69
2022-09-24T03:32:02.516Z,99772.34
2022-09-24T03:37:04.110Z,99788.22
2022-09-24T03:42:05.978Z,99770.66
2022-09-24T03:47:08.422Z,99768.84
2022-09-24T03:52:10.249Z,99761.50
2022-09-24T03:57:14.852Z,99763.88
2022-09-24T04:02:16.890Z,99767.97
2022-09-24T04:07:20.325Z,99777.16
2022-09-24T04:12:23.235Z,99768.78
2022-09-24T04:17:29.057Z,99760.31
2022-09-24T04:22:30.900Z,99774.63
2022-09-24T04:27:32.990Z,99774.66
2022-09-24T04:32:34.903Z,99774.66
2022-09-24T04:37:37.453Z,99766.22
2022-09-24T04:42:40.508Z,99763.41
2022-09-24T04:47:42.092Z,99754.88
2022-09-24T04:52:43.870Z,99770.19
2022-09-24T04:57:46.416Z,99772.09
2022-09-24T05:02:55.522Z,99763.13
2022-09-24T05:07:58.330Z,99734.28
2022-09-24T05:13:00.753Z,99772.72
2022-09-24T05:18:03.011Z,99761.97
2022-09-24T05:23:05.385Z,99773.09
2022-09-24T05:28:07.031Z,99784.16
2022-09-24T05:33:10.398Z,99783.47
2022-09-24T05:38:12.184Z,99772.72
2022-09-24T05:43:14.988Z,99776.19
2022-09-24T05:48:17.388Z,99773.91
2022-09-24T05:53:18.938Z,99768.41
2022-09-24T05:58:20.912Z,99777.94
2022-09-24T06:03:22.949Z,99784.19
2022-09-24T06:08:24.570Z,99798.88
2022-09-24T06:13:26.866Z,99805.13
2022-09-24T06:18:28.655Z,99797.03
2022-09-24T06:23:31.292Z,99809.81
2022-09-24T06:28:32.922Z,99818.34
2022-09-24T06:33:35.091Z,99817.69
2022-09-24T06:38:38.437Z,99808.72
2022-09-24T06:43:40.291Z,99801.81
2022-09-24T06:48:42.914Z,99790.44
2022-09-24T06:53:44.734Z,99778.13
2022-09-24T06:58:46.583Z,99774.75
2022-09-24T07:03:48.200Z,99768.88
2022-09-24T07:08:51.688Z,99771.56
2022-09-24T07:13:53.284Z,99779.06
2022-09-24T07:18:55.073Z,99788.41
2022-09-24T07:23:58.718Z,99805.41
2022-09-24T07:29:00.566Z,99794.56
2022-09-24T07:34:02.296Z,99793.75
2022-09-24T07:39:04.065Z,99793.69
2022-09-24T07:44:06.066Z,99785.38
2022-09-24T07:49:07.702Z,99786.22
2022-09-24T07:54:15.009Z,99783.91
2022-09-24T07:59:20.283Z,99779.94
2022-09-24T08:04:22.240Z,99778.25
2022-09-24T08:09:24.213Z,99784.13
2022-09-24T08:14:26.200Z,99769.88
2022-09-24T08:19:28.257Z,99766.59
2022-09-24T08:24:31.172Z,99762.38
2022-09-24T08:29:33.200Z,99765.69
2022-09-24T08:34:38.431Z,99753.97
2022-09-24T08:39:40.275Z,99765.78
2022-09-24T08:45:07.145Z,99770.81
2022-09-24T08:50:24.688Z,99795.25
2022-09-24T08:55:41.577Z,99788.47
2022-09-24T09:01:12.411Z,99788.44
2022-09-24T09:06:34.010Z,99780.88
2022-09-24T09:11:39.826Z,99773.22
2022-09-24T09:16:47.832Z,99774.84
2022-09-24T09:21:56.459Z,99773.16
2022-09-24T09:26:58.333Z,99769.69
2022-09-24T09:32:24.811Z,99772.13
2022-09-24T09:37:35.618Z,99767.03
2022-09-24T09:42:40.523Z,99766.81
2022-09-24T09:47:49.511Z,99757.59
2022-09-24T09:52:51.316Z,99753.28
2022-09-24T09:57:58.903Z,99750.63
2022-09-24T10:03:01.408Z,99743.78
2022-09-24T10:08:03.512Z,99731.03
2022-09-24T10:13:12.663Z,99732.72
2022-09-24T10:18:14.654Z,99734.34
2022-09-24T10:23:23.162Z,99727.25
2022-09-24T10:28:44.302Z,99722.34
2022-09-24T10:33:49.761Z,99715.97
2022-09-24T10:39:02.323Z,99717.28
2022-09-24T10:44:06.290Z,99711.91
2022-09-24T10:49:22.582Z,99714.16
2022-09-24T10:54:44.034Z,99704.03
2022-09-24T11:00:22.287Z,99708.59
2022-09-24T11:05:30.479Z,99700.13
2022-09-24T11:11:03.244Z,99707.78
2022-09-24T11:16:23.618Z,99694.22
2022-09-24T11:21:31.055Z,99696.03
2022-09-24T11:26:54.142Z,99693.97
2022-09-24T11:32:11.447Z,99689.44
2022-09-24T11:37:22.159Z,99685.78
2022-09-24T11:42:44.493Z,99684.69
2022-09-24T11:47:49.190Z,99675.06
2022-09-24T11:53:06.292Z,99670.25
2022-09-24T11:58:29.230Z,99669.97
2022-09-24T12:03:39.841Z,99672.75
2022-09-24T12:08:50.382Z,99664.88
2022-09-24T12:14:19.485Z,99671.47
2022-09-24T12:19:29.414Z,99657.19
2022-09-24T12:24:46.339Z,99646.41
2022-09-24T12:30:19.128Z,99659.25
2022-09-24T12:35:34.036Z,99658.44
2022-09-24T12:40:38.646Z,99658.44
2022-09-24T12:45:40.650Z,99643.19
2022-09-24T12:50:45.249Z,99639.59
2022-09-24T12:55:47.379Z,99637.63
2022-09-24T13:00:49.213Z,99630.84
2022-09-24T13:05:50.884Z,99613.66
2022-09-24T13:10:56.110Z,99620.44
2022-09-24T13:16:06.552Z,99615.56
2022-09-24T13:21:18.530Z,99607.53
2022-09-24T13:26:35.548Z,99605.69
2022-09-24T13:31:49.288Z,99598.03
2022-09-24T13:37:20.105Z,99593.66
2022-09-24T13:42:37.675Z,99584.78
2022-09-24T13:47:54.122Z,99577.97
2022-09-24T13:53:01.673Z,99584.72
2022-09-24T13:58:03.370Z,99568.25
2022-09-24T14:03:20.700Z,99566.91
2022-09-24T14:08:24.360Z,99560.75
2022-09-24T14:13:26.622Z,99569.28
2022-09-24T14:18:29.539Z,99569.44
2022-09-24T14:23:37.943Z,99553.31
2022-09-24T14:28:39.865Z,99556.47
2022-09-24T14:33:42.147Z,99559.00
2022-09-24T14:38:58.098Z,99557.34
2022-09-24T14:44:06.151Z,99556.34
2022-09-24T14:49:24.625Z,99563.16
2022-09-24T14:54:33.787Z,99557.31
2022-09-24T14:59:38.116Z,99550.66
2022-09-24T15:04:39.990Z,99554.97
2022-09-24T15:09:42.464Z,99553.31
2022-09-24T15:15:00.784Z,99550.13
2022-09-24T15:20:04.200Z,99549.34
2022-09-24T15:25:06.936Z,99548.03
2022-09-24T15:30:19.683Z,99544.78
2022-09-24T15:35:21.407Z,99544.91
2022-09-24T15:40:25.531Z,99538.91
2022-09-24T15:45:27.354Z,99546.69
2022-09-24T15:50:29.030Z,99541.13
2022-09-24T15:55:31.345Z,99537.66
2022-09-24T16:00:33.269Z,99542.66
2022-09-24T16:05:35.178Z,99537.66
2022-09-24T16:10:36.970Z,99538.72
2022-09-24T16:15:39.657Z,99538.72
2022-09-24T16:20:42.113Z,99535.59
2022-09-24T16:25:58.307Z,99529.91
2022-09-24T16:31:06.529Z,99541.13
2022-09-24T16:36:08.936Z,99541.28
2022-09-24T16:41:10.995Z,99542.75
2022-09-24T16:46:16.339Z,99549.34
2022-09-24T16:51:21.447Z,99549.69
2022-09-24T16:56:23.356Z,99542.63
2022-09-24T17:01:24.969Z,99548.59
2022-09-24T17:06:29.285Z,99555.31
2022-09-24T17:11:31.039Z,99561.31
2022-09-24T17:16:34.765Z,99575.09
2022-09-24T17:21:38.462Z,99577.59
2022-09-24T17:26:40.074Z,99562.03
2022-09-24T17:31:41.959Z,99571.28
2022-09-24T17:36:43.954Z,99572.16
2022-09-24T17:41:45.834Z,99566.81
2022-09-24T17:46:47.638Z,99566.00
2022-09-24T17:51:49.455Z,99571.09
2022-09-24T17:56:51.578Z,99564.41
2022-09-24T18:01:53.798Z,99562.78
2022-09-24T18:06:55.621Z,99562.28
2022-09-24T18:11:58.343Z,99565.63
2022-09-24T18:17:01.351Z,99562.97
2022-09-24T18:22:04.612Z,99557.13
2022-09-24T18:27:06.550Z,99565.66
2022-09-24T18:32:08.133Z,99559.28
2022-09-24T18:37:10.339Z,99564.56
2022-09-24T18:42:12.085Z,99561.94
2022-09-24T18:47:14.766Z,99565.13
2022-09-24T18:52:16.429Z,99559.22
2022-09-24T18:57:18.386Z,99560.16
2022-09-24T19:02:23.755Z,99564.34
2022-09-24T19:07:25.605Z,99558.34
2022-09-24T19:12:29.789Z,99560.03
2022-09-24T19:17:32.789Z,99560.03
2022-09-24T19:22:34.664Z,99564.22
2022-09-24T19:27:36.412Z,99553.66
2022-09-24T19:32:39.981Z,99543.56
2022-09-24T19:37:43.026Z,99547.03
2022-09-24T19:42:45.459Z,99553.72
2022-09-24T19:47:47.277Z,99552.78
2022-09-24T19:52:49.205Z,99547.72
2022-09-24T19:57:50.782Z,99549.41
2022-09-24T20:02:52.519Z,99552.03
2022-09-24T20:07:54.204Z,99568.13
2022-09-24T20:12:57.314Z,99556.38
2022-09-24T20:17:59.035Z,99564.09
2022-09-24T20:23:01.381Z,99561.63
2022-09-24T20:28:03.191Z,99558.31
2022-09-24T20:33:07.547Z,99558.41
2022-09-24T20:38:09.485Z,99561.00
2022-09-24T20:43:11.048Z,99551.78
2022-09-24T20:48:12.705Z,99554.38
2022-09-24T20:53:14.295Z,99551.06
2022-09-24T20:58:16.618Z,99555.31
2022-09-24T21:03:42.215Z,99549.41
2022-09-24T21:08:45.301Z,99547.81
2022-09-24T21:13:52.210Z,99550.41
2022-09-24T21:18:56.701Z,99543.78
2022-09-24T21:24:00.751Z,99555.66
2022-09-24T21:29:08.567Z,99554.09
2022-09-24T21:34:11.988Z,99554.09
2022-09-24T21:39:19.457Z,99558.34
2022-09-24T21:44:21.893Z,99549.94
2022-09-24T21:49:23.681Z,99555.03
2022-09-24T21:54:25.727Z,99549.97
2022-09-24T21:59:46.496Z,99542.41
2022-09-24T22:04:48.431Z,99546.63
2022-09-24T22:09:50.083Z,99543.28
2022-09-24T22:14:52.323Z,99544.16
2022-09-24T22:19:54.106Z,99546.69
2022-09-24T22:24:55.668Z,99541.66
2022-09-24T22:29:57.930Z,99541.75
2022-09-24T22:35:17.970Z,99540.94
2022-09-24T22:40:19.817Z,99527.50
2022-09-24T22:45:21.369Z,99520.78
2022-09-24T22:50:22.981Z,99516.59
2022-09-24T22:55:24.826Z,99519.97
2022-09-24T23:00:26.447Z,99527.53
2022-09-24T23:05:29.576Z,99535.09
2022-09-24T23:10:31.193Z,99551.94
2022-09-24T23:15:34.566Z,99547.75
2022-09-24T23:20:38.127Z,99551.16
2022-09-24T23:25:39.910Z,99560.38
2022-09-24T23:30:41.552Z,99547.75
2022-09-24T23:35:43.130Z,99549.47
2022-09-24T23:40:45.069Z,99535.16
2022-09-24T23:45:47.408Z,99533.47
2022-09-24T23:50:49.097Z,99536.84
2022-09-24T23:55:52.119Z,99540.22
